Time;durP1;ratioP1;P1;durP2;ratioP2;P2;SDS_P1;SDS_P2;PMS_P1;PMS_P2;Temp;Humidity;BMP_temperature;BMP_pressure;BME280_temperature;BME280_humidity;BME280_pressure;Samples;Min_cycle;Max_cycle;Signal;HPM_P1;HPM_P2
2021/08/11 00:00:43;;;;;;;4.7;3.3;;;;;;;17.15;84.14844;941.613;;;;
2021/08/11 00:03:09;;;;;;;3.6;3.3;;;;;;;17.17;83.75781;941.6756;;;;
2021/08/11 00:05:34;;;;;;;5.6;3.3;;;;;;;17.2;83.47363;941.5933;;;;
2021/08/11 00:08:00;;;;;;;4;3.1;;;;;;;17.13;84.08691;941.5352;;;;
2021/08/11 00:10:25;;;;;;;7.2;3.6;;;;;;;17.17;83.71191;941.5373;;;;
2021/08/11 00:12:50;;;;;;;4.5;3;;;;;;;17.07;83.9248;941.5697;;;;
2021/08/11 00:15:23;;;;;;;3.8;3.3;;;;;;;17;84.14258;941.64;;;;
2021/08/11 00:17:50;;;;;;;4.2;3.3;;;;;;;16.84;84.83105;941.5837;;;;
2021/08/11 00:20:15;;;;;;;4;2.8;;;;;;;16.79;85.27051;941.5662;;;;
2021/08/11 00:22:41;;;;;;;3.9;2.9;;;;;;;16.87;84.77832;941.5014;;;;
2021/08/11 00:25:06;;;;;;;3.8;3.2;;;;;;;;;;;;;
2021/08/11 00:27:31;;;;;;;4.5;2.9;;;;;;;;;;;;;
2021/08/11 00:29:57;;;;;;;4.3;3.1;;;;;;;;;;;;;
2021/08/11 00:32:22;;;;;;;5.7;3.4;;;;;;;;;;;;;
2021/08/11 00:34:48;;;;;;;4.2;2.9;;;;;;;;;;;;;
2021/08/11 00:37:13;;;;;;;3.7;2.9;;;;;;;;;;;;;
2021/08/11 00:39:39;;;;;;;4.1;3;;;;;;;;;;;;;
2021/08/11 00:42:31;;;;;;;5.5;2.8;;;;;;;;;;;;;
2021/08/11 00:44:56;;;;;;;3.4;3.1;;;;;;;;;;;;;
2021/08/11 00:47:21;;;;;;;3.1;2.8;;;;;;;;;;;;;
2021/08/11 00:49:46;;;;;;;3.5;2.9;;;;;;;;;;;;;
2021/08/11 00:52:11;;;;;;;3.3;3;;;;;;;;;;;;;
2021/08/11 00:54:36;;;;;;;4.4;3.1;;;;;;;;;;;;;
2021/08/11 00:57:04;;;;;;;4;3;;;;;;;;;;;;;
2021/08/11 00:59:28;;;;;;;4.5;3.3;;;;;;;;;;;;;
2021/08/11 01:01:53;;;;;;;7.2;3.2;;;;;;;;;;;;;
2021/08/11 01:04:19;;;;;;;3.1;2.8;;;;;;;;;;;;;
2021/08/11 01:06:44;;;;;;;3.3;3;;;;;;;;;;;;;
2021/08/11 01:09:10;;;;;;;4.5;3.2;;;;;;;;;;;;;
2021/08/11 01:11:35;;;;;;;4.1;2.9;;;;;;;;;;;;;
2021/08/11 01:14:01;;;;;;;4.5;3.5;;;;;;;;;;;;;
2021/08/11 01:16:26;;;;;;;4.6;3.1;;;;;;;;;;;;;
2021/08/11 01:18:51;;;;;;;5.8;3.6;;;;;;;;;;;;;
2021/08/11 01:21:17;;;;;;;4.1;3.3;;;;;;;;;;;;;
2021/08/11 01:23:42;;;;;;;3.9;3.2;;;;;;;;;;;;;
2021/08/11 01:26:07;;;;;;;6.1;3.8;;;;;;;;;;;;;
2021/08/11 01:28:32;;;;;;;4.1;3.2;;;;;;;;;;;;;
2021/08/11 01:30:57;;;;;;;4.6;3.6;;;;;;;;;;;;;
2021/08/11 01:33:22;;;;;;;3.4;3.1;;;;;;;;;;;;;
2021/08/11 01:35:47;;;;;;;3.6;3.3;;;;;;;;;;;;;
2021/08/11 01:38:12;;;;;;;4.5;3.3;;;;;;;;;;;;;
2021/08/11 01:40:37;;;;;;;4.1;3.2;;;;;;;;;;;;;
2021/08/11 01:43:04;;;;;;;5.2;3.4;;;;;;;;;;;;;
2021/08/11 01:45:29;;;;;;;5.2;3.8;;;;;;;;;;;;;
2021/08/11 01:47:55;;;;;;;3.9;3.3;;;;;;;;;;;;;
2021/08/11 01:50:20;;;;;;;6;3.6;;;;;;;;;;;;;
2021/08/11 01:52:46;;;;;;;4.9;3.5;;;;;;;;;;;;;
2021/08/11 01:55:11;;;;;;;4.6;3.3;;;;;;;;;;;;;
2021/08/11 01:57:37;;;;;;;5.2;3.5;;;;;;;;;;;;;
2021/08/11 02:00:02;;;;;;;4.6;3.1;;;;;;;;;;;;;
2021/08/11 02:02:28;;;;;;;5.2;3.8;;;;;;;;;;;;;
2021/08/11 02:04:53;;;;;;;6.1;3.4;;;;;;;;;;;;;
2021/08/11 02:07:20;;;;;;;4.3;3.3;;;;;;;;;;;;;
2021/08/11 02:09:45;;;;;;;5.9;3.4;;;;;;;;;;;;;
2021/08/11 02:12:11;;;;;;;4.2;3.4;;;;;;;;;;;;;
2021/08/11 02:14:36;;;;;;;5.3;3.6;;;;;;;;;;;;;
2021/08/11 02:17:02;;;;;;;3.7;3.1;;;;;;;;;;;;;
2021/08/11 02:19:28;;;;;;;5.6;3.5;;;;;;;;;;;;;
2021/08/11 02:21:54;;;;;;;4.5;3.1;;;;;;;;;;;;;
2021/08/11 02:24:19;;;;;;;4.5;2.9;;;;;;;;;;;;;
2021/08/11 02:26:45;;;;;;;4.7;3.3;;;;;;;;;;;;;
2021/08/11 02:29:10;;;;;;;3.8;3.2;;;;;;;;;;;;;
2021/08/11 02:31:36;;;;;;;4.9;3.1;;;;;;;;;;;;;
2021/08/11 02:34:01;;;;;;;5;3.7;;;;;;;;;;;;;
2021/08/11 02:36:27;;;;;;;6;3.5;;;;;;;;;;;;;
2021/08/11 02:38:51;;;;;;;6.7;3.8;;;;;;;;;;;;;
2021/08/11 02:41:17;;;;;;;4.9;3.4;;;;;;;;;;;;;
2021/08/11 02:43:42;;;;;;;8.6;4;;;;;;;;;;;;;
2021/08/11 02:46:07;;;;;;;5.9;3.5;;;;;;;;;;;;;
2021/08/11 02:48:32;;;;;;;6.3;4.2;;;;;;;;;;;;;
2021/08/11 02:50:57;;;;;;;6.8;3.7;;;;;;;;;;;;;
2021/08/11 02:53:23;;;;;;;5.5;3.6;;;;;;;;;;;;;
2021/08/11 02:55:48;;;;;;;5.8;3.5;;;;;;;;;;;;;
2021/08/11 02:58:14;;;;;;;4.3;3.3;;;;;;;;;;;;;
2021/08/11 03:00:39;;;;;;;4.9;3.5;;;;;;;;;;;;;
2021/08/11 03:03:05;;;;;;;5;3.5;;;;;;;;;;;;;
2021/08/11 03:05:30;;;;;;;4.5;3.5;;;;;;;;;;;;;
2021/08/11 03:07:55;;;;;;;4.8;3.8;;;;;;;;;;;;;
2021/08/11 03:10:22;;;;;;;6;3.4;;;;;;;;;;;;;
2021/08/11 03:12:47;;;;;;;7;3.6;;;;;;;;;;;;;
2021/08/11 03:15:12;;;;;;;4.5;3.7;;;;;;;;;;;;;
2021/08/11 03:17:37;;;;;;;7.5;3.7;;;;;;;;;;;;;
2021/08/11 03:20:02;;;;;;;4.1;3.3;;;;;;;;;;;;;
2021/08/11 03:22:27;;;;;;;4.1;3.2;;;;;;;;;;;;;
2021/08/11 03:24:54;;;;;;;6.5;3.8;;;;;;;;;;;;;
2021/08/11 03:27:18;;;;;;;6.1;3.3;;;;;;;;;;;;;
2021/08/11 03:29:44;;;;;;;4.6;3.5;;;;;;;;;;;;;
2021/08/11 03:32:09;;;;;;;5.5;3.3;;;;;;;;;;;;;
2021/08/11 03:34:36;;;;;;;4.6;3.3;;;;;;;;;;;;;
2021/08/11 03:37:00;;;;;;;5.1;3.9;;;;;;;;;;;;;
2021/08/11 03:39:27;;;;;;;4.5;3.3;;;;;;;;;;;;;
2021/08/11 03:41:52;;;;;;;5.2;3;;;;;;;;;;;;;
2021/08/11 03:44:18;;;;;;;5.2;3.6;;;;;;;;;;;;;
2021/08/11 03:46:43;;;;;;;4.9;3.4;;;;;;;;;;;;;
2021/08/11 03:49:10;;;;;;;4;3.4;;;;;;;;;;;;;
2021/08/11 03:51:35;;;;;;;4.2;3.1;;;;;;;;;;;;;
2021/08/11 03:54:00;;;;;;;5.4;3.8;;;;;;;;;;;;;
2021/08/11 03:56:25;;;;;;;4.6;3.4;;;;;;;;;;;;;
2021/08/11 03:58:50;;;;;;;7.5;3.7;;;;;;;;;;;;;
2021/08/11 04:02:31;;;;;;;6.6;3.7;;;;;;;14.93;91.00098;941.7994;;;;
2021/08/11 04:04:56;;;;;;;5;3.5;;;;;;;15.11;90.10352;941.8667;;;;
2021/08/11 04:07:25;;;;;;;4.4;3.2;;;;;;;15.29;89.04297;941.8184;;;;
2021/08/11 04:09:50;;;;;;;3.9;3.3;;;;;;;15.35;88.41992;941.8503;;;;
2021/08/11 04:12:20;;;;;;;4.7;3.3;;;;;;;15.3;88.83887;941.8425;;;;
2021/08/11 04:14:51;;;;;;;4.5;3.4;;;;;;;15.29;88.6748;941.8867;;;;
2021/08/11 04:17:20;;;;;;;4.5;3.3;;;;;;;15.2;89.37207;941.8633;;;;
2021/08/11 04:19:51;;;;;;;5.2;3.4;;;;;;;15.27;88.66016;941.8466;;;;
2021/08/11 04:22:20;;;;;;;5.8;3.6;;;;;;;14.96;90.21191;941.8691;;;;
2021/08/11 04:24:45;;;;;;;4.9;3.8;;;;;;;14.92;90.82617;941.9174;;;;
2021/08/11 04:27:14;;;;;;;5;3.4;;;;;;;14.78;91.83496;941.9213;;;;
2021/08/11 04:29:39;;;;;;;6.9;4;;;;;;;15.07;90.64844;941.8909;;;;
2021/08/11 04:32:05;;;;;;;4.8;3.2;;;;;;;14.85;91.20117;941.8741;;;;
2021/08/11 04:34:30;;;;;;;4.4;3.3;;;;;;;14.76;91.89844;941.8058;;;;
2021/08/11 04:36:57;;;;;;;4.6;3.4;;;;;;;14.76;92.31348;941.8194;;;;
2021/08/11 04:40:02;;;;;;;4.4;3.5;;;;;;;14.98;91.70215;941.8594;;;;
2021/08/11 04:42:13;;;;;;;4.3;3.4;;;;;;;15.22;89.84863;941.8042;;;;
2021/08/11 04:44:38;;;;;;;6.9;3.7;;;;;;;15.33;89.0752;941.86;;;;
2021/08/11 04:47:06;;;;;;;4.9;3.3;;;;;;;15.39;89.09961;941.8542;;;;
2021/08/11 04:49:31;;;;;;;4.4;3.2;;;;;;;15.53;88.26074;941.8564;;;;
2021/08/11 04:51:56;;;;;;;9.1;4.1;;;;;;;15.62;87.71484;941.9056;;;;
2021/08/11 04:54:24;;;;;;;4.3;3.5;;;;;;;15.65;87.38477;941.8911;;;;
2021/08/11 04:56:49;;;;;;;5.3;3.3;;;;;;;15.55;87.88477;941.9005;;;;
2021/08/11 04:59:16;;;;;;;4.4;3.3;;;;;;;15.42;88.62012;941.9183;;;;
2021/08/11 05:01:41;;;;;;;4.7;3.3;;;;;;;15.46;88.17871;941.8671;;;;
2021/08/11 05:04:07;;;;;;;3.9;3.1;;;;;;;15.44;88.11719;941.8471;;;;
2021/08/11 05:06:32;;;;;;;4.4;3.4;;;;;;;15.29;88.97461;941.869;;;;
2021/08/11 05:08:58;;;;;;;5.5;3.4;;;;;;;15.19;89.64746;941.9011;;;;
2021/08/11 05:11:23;;;;;;;3.8;3.1;;;;;;;15.01;90.71777;941.9155;;;;
2021/08/11 05:13:50;;;;;;;5.1;3.4;;;;;;;15.04;90.72363;941.8701;;;;
2021/08/11 05:16:26;;;;;;;3.9;3.2;;;;;;;15.17;90.33398;941.8722;;;;
2021/08/11 05:22:49;;;;;;;4;3.1;;;;;;;15.37;89.88086;941.856;;;;
2021/08/11 05:25:14;;;;;;;3.9;3.5;;;;;;;15.68;88.98438;941.8853;;;;
2021/08/11 05:27:41;;;;;;;7.2;3.3;;;;;;;15.78;87.72266;941.8992;;;;
2021/08/11 05:30:07;;;;;;;5.1;3.4;;;;;;;16.03;87.11426;941.884;;;;
2021/08/11 05:32:34;;;;;;;4.3;3.5;;;;;;;16.34;85.78613;941.8808;;;;
2021/08/11 05:34:59;;;;;;;5.2;3.4;;;;;;;16.91;83.02246;941.8429;;;;
2021/08/11 05:37:26;;;;;;;7.1;3.3;;;;;;;17.42;79.57031;941.7747;;;;
2021/08/11 05:39:51;;;;;;;5;3.3;;;;;;;18.35;76.76465;941.8505;;;;
2021/08/11 05:42:18;;;;;;;4.5;2.9;;;;;;;19.88;70.42871;941.8279;;;;
2021/08/11 05:44:43;;;;;;;3.1;2.6;;;;;;;20.6;67.36523;941.8643;;;;
2021/08/11 05:47:11;;;;;;;3.2;2.4;;;;;;;21.11;64.82422;941.8615;;;;
2021/08/11 05:49:37;;;;;;;3;2.4;;;;;;;21.4;63.30859;941.8741;;;;
2021/08/11 05:52:04;;;;;;;3.8;2.7;;;;;;;21.24;63.83594;941.8742;;;;
2021/08/11 05:54:29;;;;;;;3.4;2.6;;;;;;;20.74;66.1377;941.9316;;;;
2021/08/11 05:56:56;;;;;;;6.3;2.7;;;;;;;21.32;64.01074;941.8859;;;;
2021/08/11 05:59:21;;;;;;;2.7;2.2;;;;;;;21.92;61.59082;941.8744;;;;
2021/08/11 06:01:46;;;;;;;2.9;2.2;;;;;;;22.65;59.50879;941.8401;;;;
2021/08/11 06:04:12;;;;;;;3.4;2.2;;;;;;;23.52;56.41406;941.8445;;;;
2021/08/11 06:06:37;;;;;;;2.8;2.4;;;;;;;24.79;53.1084;941.8417;;;;
2021/08/11 06:09:03;;;;;;;3.7;2.4;;;;;;;24.33;54.30273;941.824;;;;
2021/08/11 06:11:28;;;;;;;3.8;2.4;;;;;;;23.97;55.36523;941.8237;;;;
2021/08/11 06:13:55;;;;;;;3.4;2.5;;;;;;;25.02;52.07324;941.8337;;;;
2021/08/11 06:16:25;;;;;;;3.3;2.2;;;;;;;24.61;54.57227;941.7224;;;;
2021/08/11 06:18:55;;;;;;;4.3;2.3;;;;;;;26.2;49.13477;941.7213;;;;
2021/08/11 06:21:17;;;;;;;3.1;2.4;;;;;;;27.55;46.45801;941.6096;;;;
2021/08/11 06:23:45;;;;;;;3.1;2.4;;;;;;;26.93;46.46484;941.5985;;;;
2021/08/11 06:26:10;;;;;;;3.3;2.3;;;;;;;26.27;48.45605;941.6767;;;;
2021/08/11 06:28:37;;;;;;;2.9;2.3;;;;;;;26.65;47.15918;941.7441;;;;
2021/08/11 06:31:02;;;;;;;4.1;2.5;;;;;;;26.16;48.46777;941.822;;;;
2021/08/11 06:33:27;;;;;;;2.5;2.2;;;;;;;25.59;50.13086;941.7872;;;;
2021/08/11 06:35:53;;;;;;;2.8;2.5;;;;;;;23.1;55.97266;941.8031;;;;
2021/08/11 06:38:18;;;;;;;4.7;2.7;;;;;;;24.46;53.39844;941.8635;;;;
2021/08/11 06:40:45;;;;;;;4.5;2.9;;;;;;;25.43;50.23145;941.8362;;;;
2021/08/11 06:43:10;;;;;;;2.6;2.4;;;;;;;25.1;50.91406;941.7544;;;;
2021/08/11 06:45:37;;;;;;;3.9;2.6;;;;;;;23.91;55.05078;941.8013;;;;
2021/08/11 06:48:03;;;;;;;3.8;2.1;;;;;;;25.12;52.18066;941.7891;;;;
2021/08/11 06:50:33;;;;;;;3;2.3;;;;;;;25.79;51.21777;941.7757;;;;
2021/08/11 06:52:56;;;;;;;2.6;2.4;;;;;;;29.19;43.51855;941.7867;;;;
2021/08/11 06:55:51;;;;;;;6.1;2.3;;;;;;;30.52;39.74219;941.801;;;;
2021/08/11 06:58:12;;;;;;;3.2;2.6;;;;;;;30.59;38.74512;941.8293;;;;
2021/08/11 07:00:36;;;;;;;4;2.6;;;;;;;27.85;43.39063;941.8477;;;;
2021/08/11 07:03:04;;;;;;;2.5;2.3;;;;;;;29.89;39.80469;941.7791;;;;
2021/08/11 07:05:32;;;;;;;3;2.3;;;;;;;31.39;37.71191;941.7861;;;;
2021/08/11 07:07:57;;;;;;;3.3;2;;;;;;;32.32;36.00195;941.7718;;;;
2021/08/11 07:10:23;;;;;;;2.9;2.2;;;;;;;32.46;35.66602;941.7795;;;;
2021/08/11 07:12:54;;;;;;;3.1;2.4;;;;;;;32.68;34.78223;941.693;;;;
2021/08/11 07:15:26;;;;;;;3.4;2;;;;;;;33.12;33.36328;941.7551;;;;
2021/08/11 07:17:41;;;;;;;2.7;2.2;;;;;;;33.26;33.52832;941.7325;;;;
2021/08/11 07:20:10;;;;;;;2.3;1.8;;;;;;;34.67;32.25879;941.7288;;;;
2021/08/11 07:22:33;;;;;;;2;1.8;;;;;;;34.45;31.62891;941.7094;;;;
2021/08/11 07:24:58;;;;;;;2.3;2.1;;;;;;;33.18;32.5498;941.7316;;;;
2021/08/11 07:27:24;;;;;;;2.5;2.2;;;;;;;34.32;32.24609;941.7539;;;;
2021/08/11 07:29:49;;;;;;;4.5;2.2;;;;;;;32.74;33.91113;941.6632;;;;
2021/08/11 07:32:20;;;;;;;2.2;1.8;;;;;;;34.5;31.94531;941.6333;;;;
2021/08/11 07:34:50;;;;;;;3.8;2.3;;;;;;;32.47;36.34961;941.6199;;;;
2021/08/11 07:37:16;;;;;;;2.2;2;;;;;;;33.71;33.92285;941.6378;;;;
2021/08/11 07:39:43;;;;;;;2.7;2.4;;;;;;;34.19;33.2002;941.6369;;;;
2021/08/11 07:42:08;;;;;;;2.2;2;;;;;;;34.89;30.63379;941.6012;;;;
2021/08/11 07:44:36;;;;;;;2.5;2.3;;;;;;;34.71;33.33398;941.6627;;;;
2021/08/11 07:47:01;;;;;;;3.3;2.4;;;;;;;33.41;35.9209;941.7079;;;;
2021/08/11 07:49:26;;;;;;;2.9;2.2;;;;;;;32.8;34.8877;941.6674;;;;
2021/08/11 07:51:51;;;;;;;2.6;2.4;;;;;;;32.08;36.23438;941.6108;;;;
2021/08/11 07:54:18;;;;;;;2.8;2.2;;;;;;;32.33;35.16309;941.5561;;;;
2021/08/11 07:56:43;;;;;;;2.6;2;;;;;;;34.2;32.44238;941.6024;;;;
2021/08/11 07:59:10;;;;;;;2.6;2.4;;;;;;;33.65;33.32813;941.6375;;;;
2021/08/11 08:01:35;;;;;;;2.6;2.4;;;;;;;33.89;33.16602;941.83;;;;
2021/08/11 08:04:01;;;;;;;2.4;2.2;;;;;;;32.42;35.72168;941.8253;;;;
2021/08/11 08:06:26;;;;;;;3.2;2.4;;;;;;;30.91;38.58008;941.8483;;;;
2021/08/11 08:08:52;;;;;;;3.4;2.8;;;;;;;29.13;41.02441;941.8949;;;;
2021/08/11 08:11:17;;;;;;;3.4;2.7;;;;;;;28.47;44.63867;941.8741;;;;
2021/08/11 08:13:45;;;;;;;2.5;2.3;;;;;;;27.58;48.26563;941.8653;;;;
2021/08/11 08:16:15;;;;;;;3;2.7;;;;;;;27.36;50.38867;941.9821;;;;
2021/08/11 08:18:39;;;;;;;3.6;2.6;;;;;;;27.81;47.43555;941.9492;;;;
2021/08/11 08:21:05;;;;;;;3;2.6;;;;;;;27.96;47.91309;941.959;;;;
2021/08/11 08:23:30;;;;;;;2.6;2.3;;;;;;;27.79;48.32324;941.8365;;;;
2021/08/11 08:25:58;;;;;;;3.5;2.7;;;;;;;27.32;49.8623;941.823;;;;
2021/08/11 08:28:23;;;;;;;4.5;2.6;;;;;;;26.7;52.61328;941.8306;;;;
2021/08/11 08:30:49;;;;;;;3.2;2.8;;;;;;;26.78;50.89355;941.78;;;;
2021/08/11 08:33:14;;;;;;;4;2.9;;;;;;;27.3;49.81348;941.7845;;;;
2021/08/11 08:35:40;;;;;;;3.2;2.3;;;;;;;29.65;44.61426;941.7737;;;;
2021/08/11 08:38:06;;;;;;;4;2.9;;;;;;;29.37;42.67969;941.8074;;;;
2021/08/11 08:40:31;;;;;;;3.5;2.3;;;;;;;30.53;41.88086;941.7637;;;;
2021/08/11 08:42:56;;;;;;;3.5;2.7;;;;;;;32.16;37.87207;941.77;;;;
2021/08/11 08:45:23;;;;;;;2.6;2.4;;;;;;;34.27;34.29004;941.7697;;;;
2021/08/11 08:47:48;;;;;;;3.3;2.6;;;;;;;32.7;38;941.7292;;;;
2021/08/11 08:50:14;;;;;;;2.9;2.4;;;;;;;34.35;34.56055;941.6747;;;;
2021/08/11 08:52:39;;;;;;;2.7;2.5;;;;;;;34.04;34.65723;941.6511;;;;
2021/08/11 08:55:05;;;;;;;3.1;2.5;;;;;;;34.26;35.73438;941.7136;;;;
2021/08/11 08:57:30;;;;;;;2.4;2.2;;;;;;;35.58;32.09375;941.5856;;;;
2021/08/11 08:59:56;;;;;;;2.5;2.1;;;;;;;37.13;29.37793;941.5927;;;;
2021/08/11 09:02:21;;;;;;;2.9;2.5;;;;;;;34.89;31.27246;941.5095;;;;
2021/08/11 09:04:50;;;;;;;2.5;2.3;;;;;;;32.49;36.28027;941.5574;;;;
2021/08/11 09:07:14;;;;;;;2.4;2.2;;;;;;;35.31;33.60742;941.524;;;;
2021/08/11 09:09:39;;;;;;;3.5;2;;;;;;;33.82;34.60547;941.6002;;;;
2021/08/11 09:12:04;;;;;;;2.5;2.1;;;;;;;34.58;36.27734;941.5074;;;;
2021/08/11 09:14:30;;;;;;;2.4;2.2;;;;;;;35.2;33.43066;941.5673;;;;
2021/08/11 09:17:02;;;;;;;2.3;2.1;;;;;;;34.81;34.13672;941.541;;;;
2021/08/11 09:19:30;;;;;;;4.3;2.7;;;;;;;34.88;31.71875;941.5246;;;;
2021/08/11 09:21:55;;;;;;;2.4;2.2;;;;;;;35.76;30.54688;941.4925;;;;
2021/08/11 09:24:24;;;;;;;2.2;2;;;;;;;36.21;32.7793;941.4825;;;;
2021/08/11 09:26:49;;;;;;;2.4;2.2;;;;;;;35.72;32.06738;941.4723;;;;
2021/08/11 09:29:15;;;;;;;2.5;2.2;;;;;;;36.52;30.96094;941.4059;;;;
2021/08/11 09:31:39;;;;;;;2.4;2.2;;;;;;;36.65;31.74414;941.4869;;;;
2021/08/11 09:34:06;;;;;;;2.2;2;;;;;;;33.55;38.4209;941.4673;;;;
2021/08/11 09:36:35;;;;;;;2.5;2.1;;;;;;;34.83;33.81348;941.3996;;;;
2021/08/11 09:39:00;;;;;;;2.6;2.4;;;;;;;34.06;35.59863;941.4305;;;;
2021/08/11 09:41:27;;;;;;;2.3;2.1;;;;;;;34.82;34.47656;941.4066;;;;
2021/08/11 09:43:52;;;;;;;3.8;2.3;;;;;;;33.22;35.64063;941.3555;;;;
2021/08/11 09:46:26;;;;;;;3.4;2.2;;;;;;;32.26;38.59961;941.3108;;;;
2021/08/11 09:49:05;;;;;;;3.5;2.2;;;;;;;33.3;37.08984;941.3289;;;;
2021/08/11 09:51:34;;;;;;;2.9;2.2;;;;;;;32.9;39.02637;941.2897;;;;
2021/08/11 09:54:02;;;;;;;3.2;2.1;;;;;;;30.83;40.57031;941.262;;;;
2021/08/11 09:56:27;;;;;;;2.3;2.1;;;;;;;30.58;40.54688;941.2608;;;;
2021/08/11 09:58:56;;;;;;;2.4;2.2;;;;;;;30.39;41.35449;941.2971;;;;
2021/08/11 10:01:21;;;;;;;4.8;2.9;;;;;;;30.43;43.98535;941.3;;;;
2021/08/11 10:03:45;;;;;;;2.7;2.2;;;;;;;29.3;43.58984;941.2463;;;;
2021/08/11 10:06:13;;;;;;;4.7;2.8;;;;;;;30.11;46.33008;941.3533;;;;
2021/08/11 10:08:40;;;;;;;3.5;2.1;;;;;;;31.33;43.00781;941.2521;;;;
2021/08/11 10:11:05;;;;;;;4;2.2;;;;;;;30.74;45.42578;941.264;;;;
2021/08/11 10:13:32;;;;;;;2.7;2.5;;;;;;;30.7;44.3584;941.1656;;;;
2021/08/11 10:15:59;;;;;;;3.3;2.4;;;;;;;30.64;44.5918;941.1781;;;;
2021/08/11 10:18:24;;;;;;;2.2;2;;;;;;;31.57;42.20508;941.2211;;;;
2021/08/11 10:20:49;;;;;;;3.6;2.8;;;;;;;32.02;40.14941;941.2314;;;;
2021/08/11 10:23:14;;;;;;;2.1;1.9;;;;;;;31.09;43.52246;941.2104;;;;
2021/08/11 10:25:39;;;;;;;2.6;2.4;;;;;;;31.48;43.88379;941.2307;;;;
2021/08/11 10:28:05;;;;;;;2.5;2.3;;;;;;;31.34;43.34473;941.1138;;;;
2021/08/11 10:30:30;;;;;;;2.9;2.6;;;;;;;31.41;41.97461;941.1133;;;;
2021/08/11 10:32:55;;;;;;;3.4;2.4;;;;;;;32.13;40.49512;941.0825;;;;
2021/08/11 10:35:23;;;;;;;2.7;2.4;;;;;;;31.87;41.77637;941.1244;;;;
2021/08/11 10:37:48;;;;;;;2.8;2.4;;;;;;;32.64;39.35156;941.2195;;;;
2021/08/11 10:40:13;;;;;;;2.6;2.2;;;;;;;32.46;40.96777;941.1928;;;;
2021/08/11 10:42:39;;;;;;;2.8;2.1;;;;;;;32.26;39.16309;941.1047;;;;
2021/08/11 10:45:04;;;;;;;2.5;2.2;;;;;;;33.18;38.13672;941.1472;;;;
2021/08/11 10:47:32;;;;;;;2.8;2.1;;;;;;;33.2;37.99414;941.11;;;;
2021/08/11 10:49:57;;;;;;;2.3;2.1;;;;;;;33.16;36.51367;941.1153;;;;
2021/08/11 10:52:23;;;;;;;6;4.3;;;;;;;33.97;36.46973;941.0615;;;;
2021/08/11 10:54:52;;;;;;;3.9;3;;;;;;;34.31;34.9668;940.9664;;;;
2021/08/11 10:57:15;;;;;;;2.8;2.3;;;;;;;33.23;37.46777;941.0648;;;;
2021/08/11 10:59:51;;;;;;;4.4;2.6;;;;;;;33.3;39.2041;941.0542;;;;
2021/08/11 11:02:34;;;;;;;4.8;3.2;;;;;;;33.54;38.02246;941.0614;;;;
2021/08/11 11:04:51;;;;;;;3.7;3.2;;;;;;;34.01;34.86133;940.9825;;;;
2021/08/11 11:07:16;;;;;;;3.1;2.8;;;;;;;34.07;35.61035;940.9824;;;;
2021/08/11 11:09:39;;;;;;;2.5;2.1;;;;;;;32.63;40.33496;940.9567;;;;
2021/08/11 11:12:05;;;;;;;3.7;2.5;;;;;;;32.92;39.65234;940.9384;;;;
2021/08/11 11:14:32;;;;;;;3.5;2.9;;;;;;;33.61;36.63379;940.8931;;;;
2021/08/11 11:17:00;;;;;;;3.9;2.8;;;;;;;33.85;37.375;940.8729;;;;
2021/08/11 11:19:25;;;;;;;3.8;2.7;;;;;;;32.79;40.12109;940.8197;;;;
2021/08/11 11:21:50;;;;;;;4;2.9;;;;;;;33.42;38.12012;940.7358;;;;
2021/08/11 11:24:15;;;;;;;3.1;2.5;;;;;;;32.82;40.25586;940.8092;;;;
2021/08/11 11:26:43;;;;;;;3.3;2.2;;;;;;;32.87;40.10449;940.7684;;;;
2021/08/11 11:29:08;;;;;;;2.8;2.3;;;;;;;32.94;39.3418;940.788;;;;
2021/08/11 11:31:33;;;;;;;2.3;2.1;;;;;;;32.97;39.18848;940.795;;;;
2021/08/11 11:33:58;;;;;;;2.4;2.2;;;;;;;33.55;38.49316;940.7722;;;;
2021/08/11 11:36:23;;;;;;;2.4;2.2;;;;;;;33.17;39.62598;940.7927;;;;
2021/08/11 11:38:51;;;;;;;2.5;2.3;;;;;;;32.2;41.18359;940.6769;;;;
2021/08/11 11:41:22;;;;;;;2.9;2.6;;;;;;;31.99;41.90723;940.7065;;;;
2021/08/11 11:43:48;;;;;;;3.6;2.5;;;;;;;32.93;41.6709;940.6814;;;;
2021/08/11 11:46:13;;;;;;;2.9;2.4;;;;;;;32.12;42.60254;940.7134;;;;
2021/08/11 11:48:38;;;;;;;2.7;2.5;;;;;;;32.19;40.97949;940.7413;;;;
2021/08/11 11:51:03;;;;;;;2.5;2.3;;;;;;;32.11;42.55371;940.7256;;;;
2021/08/11 11:53:29;;;;;;;3.4;2.5;;;;;;;32.29;41.39551;940.7015;;;;
2021/08/11 11:55:56;;;;;;;2.5;2.3;;;;;;;32.16;42.58301;940.7269;;;;
2021/08/11 11:58:21;;;;;;;3;2.3;;;;;;;31.71;43.52246;940.7153;;;;
2021/08/11 12:00:48;;;;;;;4.1;2.7;;;;;;;31.31;43.56836;940.7866;;;;
2021/08/11 12:03:13;;;;;;;3;2.4;;;;;;;31;43.50195;940.7193;;;;
2021/08/11 12:05:41;;;;;;;3.3;2.8;;;;;;;30.62;44.42285;940.7263;;;;
2021/08/11 12:08:06;;;;;;;4;2.6;;;;;;;31.11;44.17188;940.7302;;;;
2021/08/11 12:10:38;;;;;;;2.9;2.6;;;;;;;30.65;45.94141;940.7349;;;;
2021/08/11 12:13:01;;;;;;;3.3;2.7;;;;;;;30.56;44.08105;940.6735;;;;
2021/08/11 12:15:37;;;;;;;2.9;2.6;;;;;;;30.94;44.77539;940.6437;;;;
2021/08/11 12:18:02;;;;;;;3.4;3.1;;;;;;;30.71;44.56152;940.6691;;;;
2021/08/11 12:20:31;;;;;;;3;2.6;;;;;;;30.41;45.11914;940.6544;;;;
2021/08/11 12:22:56;;;;;;;3.4;2.8;;;;;;;29.9;48.56152;940.6682;;;;
2021/08/11 12:25:21;;;;;;;3.6;2.6;;;;;;;30;48.3584;940.6443;;;;
2021/08/11 12:27:46;;;;;;;3.3;2.7;;;;;;;29.6;46.38477;940.5779;;;;
2021/08/11 12:30:12;;;;;;;2.9;2.7;;;;;;;29.93;46.06152;940.5631;;;;
2021/08/11 12:32:37;;;;;;;4.3;3.1;;;;;;;29.67;46.40332;940.6228;;;;
2021/08/11 12:35:02;;;;;;;3.8;2.6;;;;;;;29.89;46.70117;940.5984;;;;
2021/08/11 12:37:29;;;;;;;2.9;2.6;;;;;;;29.7;47.28906;940.5681;;;;
2021/08/11 12:39:55;;;;;;;2.9;2.6;;;;;;;29.59;48.12305;940.6157;;;;
2021/08/11 12:42:19;;;;;;;3.5;2.7;;;;;;;29.38;47.7793;940.6021;;;;
2021/08/11 12:44:46;;;;;;;2.7;2.2;;;;;;;29.47;48.88574;940.6083;;;;
2021/08/11 12:47:11;;;;;;;4.1;2.8;;;;;;;29.83;47.35059;940.6292;;;;
2021/08/11 12:49:38;;;;;;;3.2;2.9;;;;;;;29.87;46.19727;940.623;;;;
2021/08/11 12:52:03;;;;;;;3.1;2.8;;;;;;;29.59;45.7627;940.615;;;;
2021/08/11 12:54:28;;;;;;;5;2.9;;;;;;;29.54;46.10449;940.6178;;;;
2021/08/11 12:56:53;;;;;;;2.7;2.5;;;;;;;29.39;46.50586;940.5362;;;;
2021/08/11 12:59:19;;;;;;;3.3;2.6;;;;;;;29.11;46.58301;940.5447;;;;
2021/08/11 13:01:44;;;;;;;2.9;2.6;;;;;;;29.21;46.67773;940.5547;;;;
2021/08/11 13:04:09;;;;;;;4;2.9;;;;;;;29.23;46.41699;940.5611;;;;
2021/08/11 13:06:34;;;;;;;3.8;3;;;;;;;29.07;47.06836;940.5458;;;;
2021/08/11 13:09:01;;;;;;;3;2.7;;;;;;;29.33;47.33398;940.5881;;;;
2021/08/11 13:11:28;;;;;;;3;2.7;;;;;;;29.57;46.79688;940.5352;;;;
2021/08/11 13:13:53;;;;;;;3.5;3.1;;;;;;;29.31;46.35449;940.5;;;;
2021/08/11 13:16:22;;;;;;;3.4;3;;;;;;;29.35;46.88281;940.4648;;;;
2021/08/11 13:18:51;;;;;;;3.8;3;;;;;;;29.1;47.92871;940.5712;;;;
2021/08/11 13:21:16;;;;;;;4.6;3.4;;;;;;;29.12;47.24023;940.6511;;;;
2021/08/11 13:23:41;;;;;;;3.7;3;;;;;;;29.3;48.06934;940.6752;;;;
2021/08/11 13:26:11;;;;;;;3.7;3.1;;;;;;;29.42;46.13965;940.5941;;;;
2021/08/11 13:28:38;;;;;;;3.4;3.1;;;;;;;29.47;46.27637;940.5686;;;;
2021/08/11 13:31:03;;;;;;;3.3;3;;;;;;;29.61;47.42285;940.6088;;;;
2021/08/11 13:33:29;;;;;;;4.5;3.1;;;;;;;29.53;46.01953;940.6273;;;;
2021/08/11 13:35:54;;;;;;;4;3.1;;;;;;;29.55;46.86816;940.673;;;;
2021/08/11 13:38:21;;;;;;;3.7;3.3;;;;;;;29.6;47.57617;940.6105;;;;
2021/08/11 13:40:46;;;;;;;3.3;3;;;;;;;29.78;47.46484;940.6019;;;;
2021/08/11 13:43:11;;;;;;;3.6;3.3;;;;;;;29.89;45.75879;940.6142;;;;
2021/08/11 13:45:36;;;;;;;3.8;3.3;;;;;;;30.01;45.91211;940.5931;;;;
2021/08/11 13:48:05;;;;;;;3.6;3.2;;;;;;;29.68;46.36914;940.5513;;;;
2021/08/11 13:50:28;;;;;;;3.3;3;;;;;;;29.71;45.81152;940.5619;;;;
2021/08/11 13:52:54;;;;;;;4.3;3;;;;;;;29.68;46.03516;940.6104;;;;
2021/08/11 13:55:19;;;;;;;4.2;3.4;;;;;;;29.76;46.31836;940.589;;;;
2021/08/11 13:57:45;;;;;;;4.2;3.2;;;;;;;29.7;46.78711;940.6916;;;;
2021/08/11 14:00:10;;;;;;;5.4;3.4;;;;;;;29.51;46.69727;940.6545;;;;
2021/08/11 14:02:36;;;;;;;4;3;;;;;;;29.24;47.60938;940.6799;;;;
2021/08/11 14:05:01;;;;;;;3.8;3.4;;;;;;;29.4;48.96191;940.61;;;;
2021/08/11 14:07:28;;;;;;;4;3;;;;;;;29.31;49.67773;940.6422;;;;
2021/08/11 14:09:54;;;;;;;5;3.3;;;;;;;29.35;49.79004;940.6295;;;;
2021/08/11 14:12:20;;;;;;;4.8;3.7;;;;;;;29.23;49.19238;940.6063;;;;
2021/08/11 14:14:45;;;;;;;3.9;3.3;;;;;;;29.4;47.3418;940.5536;;;;
2021/08/11 14:17:11;;;;;;;4;3.1;;;;;;;29.39;49.77051;940.6124;;;;
2021/08/11 14:19:38;;;;;;;5.1;3.4;;;;;;;29.42;48.24902;940.5481;;;;
2021/08/11 14:22:03;;;;;;;5.8;3.7;;;;;;;29.41;47.72266;940.5792;;;;
2021/08/11 14:24:32;;;;;;;4.3;3.2;;;;;;;29.39;48.55469;940.6199;;;;
2021/08/11 14:26:57;;;;;;;4.3;3.3;;;;;;;29.4;47.97266;940.702;;;;
2021/08/11 14:29:25;;;;;;;4.8;3.5;;;;;;;29.52;48.33105;940.6781;;;;
2021/08/11 14:31:50;;;;;;;3.4;3;;;;;;;29.59;47.59863;940.6675;;;;
2021/08/11 14:34:17;;;;;;;5.5;3.3;;;;;;;29.47;47.50195;940.652;;;;
2021/08/11 14:36:42;;;;;;;4.7;3.6;;;;;;;29.47;48.05078;940.6845;;;;
2021/08/11 14:39:07;;;;;;;4.8;3.5;;;;;;;29.57;46.91699;940.6383;;;;
2021/08/11 14:41:32;;;;;;;3.7;3.3;;;;;;;29.64;49.02344;940.6369;;;;
2021/08/11 14:44:00;;;;;;;3.6;3.1;;;;;;;29.38;48.33984;940.6852;;;;
2021/08/11 14:46:25;;;;;;;5.5;3.2;;;;;;;29.42;49.08203;940.683;;;;
2021/08/11 14:48:51;;;;;;;4.7;3.6;;;;;;;29.25;48.48047;940.6412;;;;
2021/08/11 14:51:16;;;;;;;4.7;3.4;;;;;;;29.11;48.14355;940.5854;;;;
2021/08/11 14:53:41;;;;;;;3.6;3.3;;;;;;;29.15;48.43457;940.6437;;;;
2021/08/11 14:56:06;;;;;;;3.7;3.3;;;;;;;28.87;50.28516;940.644;;;;
2021/08/11 14:58:31;;;;;;;3.9;3.1;;;;;;;29.01;49.40625;940.6642;;;;
2021/08/11 15:00:56;;;;;;;4.1;3.5;;;;;;;28.84;48.87695;940.649;;;;
2021/08/11 15:03:22;;;;;;;3.7;3.3;;;;;;;28.96;48.61523;940.7065;;;;
2021/08/11 15:05:47;;;;;;;4;3.4;;;;;;;28.83;49.30273;940.6329;;;;
2021/08/11 15:08:14;;;;;;;3.7;3.2;;;;;;;28.91;49.04004;940.6925;;;;
2021/08/11 15:10:39;;;;;;;3.6;3.3;;;;;;;28.86;49.27246;940.6767;;;;
2021/08/11 15:13:07;;;;;;;4.1;3.5;;;;;;;28.82;52.06348;940.7112;;;;
2021/08/11 15:15:40;;;;;;;3.9;3.5;;;;;;;28.83;50.64746;940.7192;;;;
2021/08/11 15:18:11;;;;;;;3.4;3.1;;;;;;;28.79;50.02637;940.6861;;;;
2021/08/11 15:20:41;;;;;;;3.6;3.3;;;;;;;28.63;49.8418;940.6893;;;;
2021/08/11 15:23:06;;;;;;;3.8;3.3;;;;;;;28.61;49.55371;940.655;;;;
2021/08/11 15:25:34;;;;;;;4.4;3.2;;;;;;;28.58;50.93066;940.6362;;;;
2021/08/11 15:27:59;;;;;;;4.2;3.8;;;;;;;28.35;51.50977;940.5927;;;;
2021/08/11 15:30:34;;;;;;;3.6;3.3;;;;;;;28.49;51.20605;940.6758;;;;
2021/08/11 15:32:59;;;;;;;3.7;3.3;;;;;;;28.3;51.64648;940.6018;;;;